Time;durP1;ratioP1;P1;durP2;ratioP2;P2;SDS_P1;SDS_P2;PMS_P1;PMS_P2;Temp;Humidity;BMP_temperature;BMP_pressure;BME280_temperature;BME280_humidity;BME280_pressure;Samples;Min_cycle;Max_cycle;Signal;HPM_P1;HPM_P2
2022/09/25 00:01:30;;;;;;;0.43;0.30;;;;;;;11.68;72.75;95818.13;4990950;28;20897;-58
2022/09/25 00:04:00;;;;;;;0.40;0.30;;;;;;;11.81;71.97;95821.09;4990589;28;20436;-58
2022/09/25 00:06:29;;;;;;;0.60;0.60;;;;;;;11.88;71.19;95826.13;4990180;28;21001;-58
2022/09/25 00:08:58;;;;;;;1.00;0.40;;;;;;;11.28;72.25;95771.06;4989755;28;20429;-58
2022/09/25 00:11:28;;;;;;;0.40;0.30;;;;;;;11.77;72.58;95822.66;4990752;28;20899;-58
2022/09/25 00:13:58;;;;;;;0.40;0.20;;;;;;;11.85;71.69;95811.53;4990654;28;20437;-58
2022/09/25 00:16:29;;;;;;;0.40;0.30;;;;;;;11.98;70.78;95811.00;4990386;28;20425;-58
2022/09/25 00:21:51;;;;;;;0.40;0.30;;;;;;;11.85;70.43;95813.38;4990185;28;20429;-58
2022/09/25 00:24:21;;;;;;;0.50;0.30;;;;;;;11.47;71.23;95786.22;4990282;28;20437;-58
2022/09/25 00:26:49;;;;;;;0.40;0.30;;;;;;;11.68;71.26;95811.00;4990592;28;20468;-58
2022/09/25 00:29:20;;;;;;;1.13;0.60;;;;;;;11.60;71.41;95818.63;5002638;28;20528;-58
2022/09/25 00:31:48;;;;;;;0.40;0.30;;;;;;;11.16;73.32;95813.72;4990919;28;20452;-58
2022/09/25 00:34:17;;;;;;;0.40;0.30;;;;;;;11.29;72.82;95815.09;4990331;28;20437;-59
2022/09/25 00:36:46;;;;;;;0.60;0.40;;;;;;;11.36;73.61;95824.41;4990245;28;20433;-58
2022/09/25 00:39:14;;;;;;;0.40;0.20;;;;;;;11.51;72.67;95818.34;4990064;28;20441;-58
2022/09/25 00:41:43;;;;;;;0.40;0.30;;;;;;;11.43;72.70;95814.34;4990239;28;20417;-58
2022/09/25 00:45:00;;;;;;;0.60;0.50;;;;;;;11.26;73.01;95810.31;4989974;28;20433;-57
2022/09/25 00:47:43;;;;;;;0.40;0.20;;;;;;;10.79;76.29;95807.75;4990309;28;20473;-58
2022/09/25 00:50:22;;;;;;;1.17;0.30;;;;;;;10.69;76.41;95813.81;4990319;28;20797;-58
2022/09/25 00:52:56;;;;;;;7.10;0.30;;;;;;;10.68;78.01;95816.69;4989734;28;20440;-57
2022/09/25 00:55:24;;;;;;;0.40;0.20;;;;;;;10.98;76.61;95811.53;4990016;28;20933;-57
2022/09/25 00:57:55;;;;;;;0.50;0.30;;;;;;;11.11;75.64;95807.59;4990064;28;20954;-58
2022/09/25 01:00:24;;;;;;;0.60;0.50;;;;;;;11.23;74.36;95803.66;4990078;28;20433;-58
2022/09/25 01:02:55;;;;;;;0.40;0.20;;;;;;;11.18;74.60;95797.56;4990097;28;20467;-58
2022/09/25 01:05:28;;;;;;;0.40;0.20;;;;;;;10.89;74.98;95783.13;4989560;28;20422;-58
2022/09/25 01:08:01;;;;;;;0.40;0.33;;;;;;;10.54;76.86;95803.13;4989811;28;20439;-58
2022/09/25 01:10:29;;;;;;;0.40;0.20;;;;;;;10.85;76.59;95804.09;4989691;28;20771;-58
2022/09/25 01:12:59;;;;;;;0.40;0.20;;;;;;;10.96;75.37;95796.94;4989517;28;20432;-58
2022/09/25 01:15:35;;;;;;;0.50;0.37;;;;;;;10.99;75.54;95793.78;4989893;28;20429;-58
2022/09/25 01:18:17;;;;;;;0.40;0.20;;;;;;;11.09;74.08;95815.84;4989905;28;20428;-58
2022/09/25 01:21:06;;;;;;;0.40;0.20;;;;;;;11.11;73.87;95807.59;4993232;28;20425;-58
2022/09/25 01:23:55;;;;;;;0.40;0.30;;;;;;;11.29;73.50;95799.97;4993407;28;20437;-59
2022/09/25 01:26:44;;;;;;;0.40;0.20;;;;;;;11.17;74.54;95804.72;4954273;29;20487;-58
2022/09/25 01:29:18;;;;;;;0.40;0.20;;;;;;;11.19;74.21;95794.66;4954378;28;20442;-58
2022/09/25 01:31:56;;;;;;;0.40;0.30;;;;;;;11.05;74.78;95790.09;4954183;29;20462;-58
2022/09/25 01:34:29;;;;;;;0.40;0.30;;;;;;;10.40;78.82;95788.72;4954392;28;20796;-58
2022/09/25 01:37:05;;;;;;;0.40;0.20;;;;;;;10.67;77.04;95794.72;4953802;29;20430;-58
2022/09/25 01:39:37;;;;;;;0.40;0.20;;;;;;;10.68;76.91;95793.66;4953832;28;20478;-58
2022/09/25 01:42:12;;;;;;;0.60;0.40;;;;;;;10.79;76.55;95775.94;4953799;29;20435;-58
2022/09/25 01:44:46;;;;;;;0.40;0.30;;;;;;;10.85;75.82;95801.44;4953825;28;20434;-58
2022/09/25 01:47:21;;;;;;;0.40;0.20;;;;;;;10.67;76.95;95801.88;4953600;28;20478;-58
2022/09/25 01:49:53;;;;;;;0.90;0.30;;;;;;;10.21;79.93;95800.78;4954193;28;20425;-58
2022/09/25 01:52:25;;;;;;;0.53;0.40;;;;;;;9.75;84.90;95802.25;4954035;28;20439;-58
2022/09/25 01:54:59;;;;;;;0.40;0.30;;;;;;;10.11;84.57;95806.78;4953538;28;20975;-58
2022/09/25 01:57:32;;;;;;;0.40;0.20;;;;;;;10.18;81.30;95804.75;4954003;28;20453;-58
2022/09/25 02:00:08;;;;;;;0.40;0.30;;;;;;;9.74;85.03;95810.47;4953630;28;20821;-58
2022/09/25 02:02:41;;;;;;;0.40;0.30;;;;;;;9.66;85.73;95814.38;4953723;28;20437;-58
2022/09/25 02:05:14;;;;;;;0.50;0.50;;;;;;;9.75;85.34;95814.69;4953671;29;20575;-58
2022/09/25 02:07:48;;;;;;;0.40;0.40;;;;;;;9.65;86.06;95818.03;4953326;28;20470;-58
2022/09/25 02:10:21;;;;;;;0.40;0.30;;;;;;;9.68;86.26;95817.56;4953252;28;20449;-58
2022/09/25 02:13:04;;;;;;;0.40;0.27;;;;;;;9.84;84.86;95816.63;4953741;28;20921;-58
2022/09/25 02:15:38;;;;;;;0.40;0.30;;;;;;;9.88;85.24;95817.72;4953444;28;20441;-58
2022/09/25 02:21:00;;;;;;;0.40;0.30;;;;;;;10.29;81.93;95818.06;4953669;28;20431;-58
2022/09/25 02:23:43;;;;;;;0.97;0.97;;;;;;;9.98;82.46;95812.50;4953193;28;20445;-58
2022/09/25 02:26:20;;;;;;;0.60;0.30;;;;;;;9.96;84.27;95819.91;4953237;28;20423;-58
2022/09/25 02:28:52;;;;;;;0.50;0.43;;;;;;;9.73;85.61;95819.44;4953422;28;20438;-58
2022/09/25 02:31:27;;;;;;;1.00;1.00;;;;;;;9.99;83.72;95802.72;4952804;28;20438;-58
2022/09/25 02:33:56;;;;;;;0.40;0.30;;;;;;;9.83;83.74;95807.09;4953007;28;20430;-58
2022/09/25 02:36:24;;;;;;;0.50;0.30;;;;;;;10.02;81.95;95797.69;4962478;28;20426;-58
2022/09/25 02:38:55;;;;;;;0.40;0.30;;;;;;;9.48;82.78;95759.97;4953285;29;20431;-58
2022/09/25 02:41:39;;;;;;;0.40;0.20;;;;;;;9.83;83.86;95809.75;4953325;28;20434;-58
2022/09/25 02:44:21;;;;;;;0.50;0.47;;;;;;;9.99;81.48;95806.16;4952983;28;20441;-58
2022/09/25 02:47:03;;;;;;;0.37;0.30;;;;;;;10.01;80.90;95812.00;4952717;28;20482;-58
2022/09/25 02:49:39;;;;;;;0.40;0.20;;;;;;;9.96;81.09;95809.31;4952958;28;20419;-58
2022/09/25 02:52:13;;;;;;;0.40;0.30;;;;;;;9.73;83.16;95812.31;4953114;29;20450;-58
2022/09/25 02:54:47;;;;;;;0.60;0.50;;;;;;;10.05;81.39;95805.16;4952756;28;20807;-58
2022/09/25 02:57:23;;;;;;;0.50;0.30;;;;;;;9.83;82.86;95808.94;4952521;29;20821;-58
2022/09/25 02:59:55;;;;;;;0.67;0.40;;;;;;;9.81;83.55;95814.50;4952853;28;20427;-58
2022/09/25 03:02:27;;;;;;;0.50;0.47;;;;;;;9.90;82.89;95814.81;4952499;28;20435;-58
2022/09/25 03:04:56;;;;;;;0.43;0.43;;;;;;;9.76;83.98;95809.16;4952554;29;20419;-58
2022/09/25 03:07:25;;;;;;;0.83;0.83;;;;;;;9.84;83.87;95816.63;4952326;29;20474;-58
2022/09/25 03:09:57;;;;;;;0.40;0.20;;;;;;;9.97;81.76;95816.19;4952799;28;20807;-57
2022/09/25 03:12:25;;;;;;;0.40;0.40;;;;;;;10.14;80.41;95808.16;4952735;28;20434;-58
2022/09/25 03:14:53;;;;;;;0.40;0.27;;;;;;;10.16;79.50;95812.16;4952808;28;20431;-58
2022/09/25 03:17:22;;;;;;;0.40;0.30;;;;;;;10.00;80.62;95818.34;4952443;28;20955;-58
2022/09/25 03:19:52;;;;;;;0.40;0.30;;;;;;;9.97;81.43;95818.84;4952738;28;20430;-58
2022/09/25 03:22:20;;;;;;;0.40;0.20;;;;;;;10.14;81.09;95814.25;4952698;28;20427;-58
2022/09/25 03:24:49;;;;;;;0.40;0.20;;;;;;;10.52;78.26;95801.78;4952529;28;20442;-58
2022/09/25 03:27:18;;;;;;;0.40;0.20;;;;;;;10.11;79.29;95812.09;4952245;28;20470;-58
2022/09/25 03:29:47;;;;;;;0.40;0.30;;;;;;;8.74;81.48;95645.28;4952056;29;20434;-56
2022/09/25 03:32:15;;;;;;;0.40;0.30;;;;;;;9.44;82.10;95766.78;4952378;29;20423;-61
2022/09/25 03:34:44;;;;;;;0.40;0.30;;;;;;;9.30;83.70;95815.84;4952206;28;20442;-61
2022/09/25 03:37:14;;;;;;;0.40;0.37;;;;;;;9.07;83.73;95817.97;4952450;28;20453;-61
2022/09/25 03:39:42;;;;;;;0.60;0.30;;;;;;;8.72;87.14;95821.78;4952104;28;20470;-61
2022/09/25 03:42:10;;;;;;;0.57;0.57;;;;;;;9.39;82.06;95814.34;4950864;28;20443;-61
2022/09/25 03:44:38;;;;;;;0.40;0.30;;;;;;;9.16;82.48;95803.28;4952281;28;20442;-61
2022/09/25 03:47:07;;;;;;;0.50;0.50;;;;;;;9.58;80.17;95817.47;4951985;28;20477;-61
2022/09/25 03:49:35;;;;;;;0.40;0.40;;;;;;;9.11;80.34;95763.56;4952183;28;20811;-61
2022/09/25 03:52:03;;;;;;;3.33;3.20;;;;;;;9.65;78.10;95794.22;4952298;28;20427;-62
2022/09/25 03:54:33;;;;;;;0.40;0.30;;;;;;;9.97;77.34;95821.50;4951891;28;20435;-61
2022/09/25 03:57:01;;;;;;;0.40;0.30;;;;;;;9.67;78.24;95813.28;4951913;28;20434;-61
2022/09/25 03:59:29;;;;;;;0.40;0.20;;;;;;;9.32;77.78;95757.41;4951768;28;20442;-61
2022/09/25 04:01:58;;;;;;;0.40;0.30;;;;;;;9.68;76.51;95795.56;4952205;28;20831;-61
2022/09/25 04:04:26;;;;;;;2.00;0.70;;;;;;;10.08;76.11;95812.59;4951826;29;20802;-61
2022/09/25 04:06:54;;;;;;;0.40;0.23;;;;;;;10.62;73.81;95817.75;4952055;28;20438;-62
2022/09/25 04:09:22;;;;;;;1.10;1.07;;;;;;;10.22;74.61;95820.91;4951653;28;20921;-56
2022/09/25 04:11:54;;;;;;;0.40;0.20;;;;;;;10.34;74.48;95816.25;4951657;28;20427;-62
2022/09/25 04:14:22;;;;;;;0.40;0.30;;;;;;;9.88;75.01;95806.34;4951848;28;20434;-62
2022/09/25 04:16:51;;;;;;;0.40;0.30;;;;;;;9.90;76.29;95809.53;4951596;28;20439;-62
2022/09/25 04:19:19;;;;;;;0.50;0.43;;;;;;;10.06;75.13;95798.00;4951261;29;20462;-62
2022/09/25 04:21:47;;;;;;;0.40;0.30;;;;;;;10.25;73.91;95814.31;4951763;28;20419;-62
2022/09/25 04:27:03;;;;;;;0.50;0.40;;;;;;;10.28;73.77;95824.41;4951252;29;20545;-62
2022/09/25 04:29:31;;;;;;;0.30;0.20;;;;;;;10.45;74.12;95812.59;4951223;28;20482;-62
2022/09/25 04:34:45;;;;;;;0.40;0.30;;;;;;;10.61;73.75;95811.63;4951526;28;20447;-61
2022/09/25 04:37:14;;;;;;;0.50;0.30;;;;;;;8.96;73.91;95576.47;4951319;28;20438;-62
2022/09/25 04:39:42;;;;;;;0.40;0.30;;;;;;;10.16;74.26;95780.38;4951176;28;20478;-61
2022/09/25 04:42:13;;;;;;;0.60;0.60;;;;;;;10.06;75.30;95785.56;4961350;29;20445;-61
2022/09/25 04:44:41;;;;;;;0.40;0.27;;;;;;;10.45;73.79;95796.69;4958908;28;20928;-61
2022/09/25 04:47:09;;;;;;;0.40;0.30;;;;;;;9.72;73.20;95649.22;4951516;28;20941;-61
2022/09/25 04:49:38;;;;;;;0.40;0.20;;;;;;;10.78;72.56;95824.72;4961337;28;20503;-61
2022/09/25 04:52:06;;;;;;;0.70;0.33;;;;;;;10.72;73.74;95829.22;4989742;28;20436;-61
2022/09/25 04:54:35;;;;;;;0.40;0.30;;;;;;;10.52;73.40;95792.00;4989370;28;20488;-60
2022/09/25 04:57:04;;;;;;;0.40;0.30;;;;;;;10.90;73.63;95822.66;4989931;28;20441;-60
2022/09/25 04:59:34;;;;;;;0.30;0.20;;;;;;;10.94;73.66;95842.31;4989671;28;20433;-61
2022/09/25 05:02:02;;;;;;;0.30;0.30;;;;;;;10.58;74.71;95840.50;4989650;28;20429;-61
2022/09/25 05:04:31;;;;;;;0.40;0.20;;;;;;;10.30;75.86;95840.84;4990093;28;20433;-60
2022/09/25 05:06:59;;;;;;;0.40;0.30;;;;;;;10.14;76.87;95837.31;4989526;28;20433;-60
2022/09/25 05:09:27;;;;;;;0.50;0.40;;;;;;;5.89;75.60;95165.28;4989308;28;20468;-60
2022/09/25 05:11:56;;;;;;;0.33;0.27;;;;;;;10.28;76.36;95845.59;4989695;28;20788;-60
2022/09/25 05:14:24;;;;;;;0.40;0.40;;;;;;;9.75;79.17;95835.88;4989981;28;20452;-60
2022/09/25 05:16:54;;;;;;;0.40;0.40;;;;;;;10.17;77.96;95853.47;4989497;28;20818;-61
2022/09/25 05:19:22;;;;;;;0.40;0.30;;;;;;;10.81;75.48;95843.56;4989261;28;20417;-61
2022/09/25 05:21:53;;;;;;;0.80;0.80;;;;;;;10.62;73.85;95796.53;4989590;28;20811;-61
2022/09/25 05:24:21;;;;;;;0.53;0.40;;;;;;;11.43;71.95;95834.78;4989685;28;20425;-60
2022/09/25 05:26:50;;;;;;;0.40;0.20;;;;;;;10.90;73.82;95840.44;4989131;28;20440;-60
2022/09/25 05:29:18;;;;;;;0.40;0.30;;;;;;;10.97;73.17;95841.78;4989087;28;20476;-60
2022/09/25 05:31:48;;;;;;;1.37;0.40;;;;;;;10.66;75.27;95834.72;4989375;28;20437;-60
2022/09/25 05:34:18;;;;;;;1.87;1.77;;;;;;;11.32;73.47;95830.50;4989064;28;20932;-60
2022/09/25 05:36:46;;;;;;;3.63;0.90;;;;;;;10.20;72.69;95667.53;4988966;28;20452;-60
2022/09/25 05:39:14;;;;;;;0.70;0.60;;;;;;;11.35;72.60;95822.03;4989202;28;20445;-60
2022/09/25 05:41:43;;;;;;;1.27;0.70;;;;;;;11.18;73.08;95840.03;4989295;28;20441;-60
2022/09/25 05:44:11;;;;;;;1.70;1.03;;;;;;;10.70;74.36;95825.22;4989026;28;20424;-59
2022/09/25 05:46:41;;;;;;;0.40;0.30;;;;;;;11.42;73.15;95836.66;4988768;28;20486;-59
2022/09/25 05:49:09;;;;;;;1.00;1.00;;;;;;;11.03;74.70;95832.00;4988729;28;20464;-59
2022/09/25 05:51:39;;;;;;;0.70;0.70;;;;;;;11.03;74.16;95840.75;4988324;28;20432;-59
2022/09/25 05:54:07;;;;;;;1.17;1.07;;;;;;;10.72;74.58;95762.13;4988927;28;20433;-58
2022/09/25 05:56:35;;;;;;;1.87;0.90;;;;;;;11.27;73.46;95833.16;4988918;28;20965;-57
2022/09/25 05:59:04;;;;;;;0.60;0.60;;;;;;;11.76;72.77;95829.06;4988955;28;20427;-56
2022/09/25 06:01:32;;;;;;;0.70;0.70;;;;;;;12.80;69.08;95809.81;4989073;28;20440;-56
2022/09/25 06:04:00;;;;;;;1.17;1.03;;;;;;;13.44;66.95;95822.34;4988647;28;20434;-56
2022/09/25 06:06:31;;;;;;;1.90;0.40;;;;;;;13.51;66.25;95828.22;4990743;28;20433;-56
2022/09/25 06:09:00;;;;;;;0.40;0.30;;;;;;;13.42;66.07;95819.97;4991918;28;21060;-55
2022/09/25 06:11:30;;;;;;;0.70;0.63;;;;;;;13.13;66.86;95832.38;4991924;28;20424;-56
2022/09/25 06:13:58;;;;;;;5.43;3.00;;;;;;;13.58;65.75;95810.03;4991843;28;20425;-56
2022/09/25 06:16:27;;;;;;;0.90;0.90;;;;;;;14.36;64.14;95832.16;4992110;28;20437;-56
2022/09/25 06:18:55;;;;;;;0.50;0.40;;;;;;;13.67;62.86;95765.75;4991707;28;20428;-57
2022/09/25 06:21:23;;;;;;;1.13;1.03;;;;;;;13.81;62.65;95828.78;4992033;28;20430;-57
2022/09/25 06:23:52;;;;;;;1.73;1.63;;;;;;;13.72;62.88;95840.31;4991993;28;20432;-59
2022/09/25 06:26:22;;;;;;;0.80;0.80;;;;;;;13.78;63.44;95840.03;4991407;28;20425;-55
2022/09/25 06:28:50;;;;;;;0.53;0.53;;;;;;;14.84;62.60;95823.16;4991719;28;20476;-55
2022/09/25 06:31:19;;;;;;;0.50;0.40;;;;;;;14.57;60.79;95831.69;4992041;28;20448;-56
2022/09/25 06:33:50;;;;;;;0.80;0.80;;;;;;;15.46;59.37;95826.72;4991928;28;20433;-55
2022/09/25 06:36:18;;;;;;;0.80;0.80;;;;;;;15.15;59.50;95847.66;4991545;28;20437;-56
2022/09/25 06:38:48;;;;;;;1.53;1.43;;;;;;;15.24;58.49;95797.84;4991244;28;20439;-56
2022/09/25 06:41:16;;;;;;;0.63;0.40;;;;;;;16.26;57.67;95820.19;4989973;28;20484;-56
2022/09/25 06:43:48;;;;;;;5.70;1.17;;;;;;;15.84;57.73;95818.44;4988792;28;20438;-56
2022/09/25 06:46:18;;;;;;;0.80;0.80;;;;;;;15.51;58.00;95821.31;4989579;28;20425;-56
2022/09/25 06:48:53;;;;;;;2.13;0.80;;;;;;;14.94;60.26;95825.72;4988740;28;20564;-56
2022/09/25 06:51:21;;;;;;;0.97;0.97;;;;;;;15.76;59.01;95811.06;4988619;28;20430;-57
2022/09/25 06:53:52;;;;;;;0.97;0.70;;;;;;;15.79;58.11;95805.13;4988400;28;20434;-55
2022/09/25 06:56:21;;;;;;;1.13;1.07;;;;;;;16.79;55.79;95803.78;4989151;28;20433;-55
2022/09/25 06:58:51;;;;;;;0.50;0.50;;;;;;;16.96;55.40;95807.47;4989126;28;20979;-55
2022/09/25 07:01:19;;;;;;;2.00;0.83;;;;;;;17.60;54.07;95809.16;4989948;28;20434;-57
2022/09/25 07:03:48;;;;;;;1.37;0.80;;;;;;;16.93;54.26;95813.41;4990876;28;20491;-56
2022/09/25 07:06:18;;;;;;;1.90;0.77;;;;;;;18.56;51.83;95803.41;4991583;28;20454;-56
2022/09/25 07:08:48;;;;;;;0.40;0.30;;;;;;;19.30;49.40;95799.00;4991269;28;20445;-56
2022/09/25 07:11:19;;;;;;;0.50;0.50;;;;;;;20.49;47.53;95786.75;4991378;28;20785;-57
2022/09/25 07:13:53;;;;;;;2.20;0.60;;;;;;;21.53;44.67;95797.59;4991342;28;20783;-56
2022/09/25 07:16:26;;;;;;;0.80;0.80;;;;;;;20.68;45.62;95795.25;4990500;28;20440;-57
2022/09/25 07:18:56;;;;;;;1.23;1.13;;;;;;;20.11;48.24;95798.16;4990911;28;20516;-56
2022/09/25 07:21:26;;;;;;;0.60;0.47;;;;;;;19.72;47.43;95790.25;4990889;28;20434;-56
2022/09/25 07:23:57;;;;;;;0.50;0.40;;;;;;;19.88;47.17;95799.44;4990505;28;21142;-57
2022/09/25 07:26:28;;;;;;;0.83;0.83;;;;;;;20.11;47.25;95794.69;4990709;28;20480;-57
2022/09/25 07:28:59;;;;;;;0.93;0.60;;;;;;;20.40;45.93;95759.03;4990789;28;20438;-57
2022/09/25 07:31:30;;;;;;;1.00;0.90;;;;;;;20.04;45.98;95787.09;4990785;28;20434;-56
2022/09/25 07:34:04;;;;;;;2.10;1.07;;;;;;;21.11;44.79;95781.66;4990615;28;20517;-56
2022/09/25 07:36:34;;;;;;;1.23;0.83;;;;;;;20.81;44.87;95778.09;4990607;28;20450;-56
2022/09/25 07:39:03;;;;;;;0.80;0.50;;;;;;;20.52;44.79;95732.22;4990396;28;20967;-56
2022/09/25 07:41:32;;;;;;;2.40;0.53;;;;;;;22.00;42.96;95771.28;4990673;28;20540;-56
2022/09/25 07:44:01;;;;;;;0.70;0.70;;;;;;;22.72;41.82;95759.94;4990317;28;20495;-56
2022/09/25 07:46:51;;;;;;;0.93;0.40;;;;;;;23.13;42.14;95752.78;4990342;28;20804;-55
2022/09/25 07:49:20;;;;;;;1.60;0.60;;;;;;;22.50;41.00;95741.41;4990716;28;20493;-56
2022/09/25 07:51:48;;;;;;;1.90;0.73;;;;;;;22.36;41.48;95761.75;4990927;28;20439;-54
2022/09/25 07:54:16;;;;;;;1.00;0.63;;;;;;;22.51;42.35;95766.53;4990459;28;20455;-54
2022/09/25 07:56:45;;;;;;;0.90;0.90;;;;;;;23.09;41.08;95758.09;4990649;28;20437;-55
2022/09/25 07:59:13;;;;;;;5.43;1.53;;;;;;;23.75;39.80;95758.63;4990835;28;20457;-55
2022/09/25 08:01:41;;;;;;;0.40;0.30;;;;;;;23.83;40.08;95754.97;4990771;28;20427;-54
2022/09/25 08:04:16;;;;;;;1.03;0.90;;;;;;;24.36;38.67;95750.31;4990269;28;20431;-55
2022/09/25 08:06:45;;;;;;;0.60;0.40;;;;;;;24.12;38.69;95756.59;4990371;28;20434;-55
2022/09/25 08:09:13;;;;;;;0.50;0.50;;;;;;;24.08;40.04;95744.09;4990377;28;20430;-55
2022/09/25 08:11:41;;;;;;;0.80;0.60;;;;;;;24.52;39.53;95745.69;4990364;28;20440;-55
2022/09/25 08:14:14;;;;;;;0.60;0.57;;;;;;;24.06;39.59;95730.09;4990577;28;20435;-56
2022/09/25 08:16:43;;;;;;;0.77;0.77;;;;;;;24.80;38.29;95705.78;4990220;28;20427;-56
2022/09/25 08:19:12;;;;;;;0.40;0.40;;;;;;;25.23;36.77;95729.28;4990539;28;20477;-57
2022/09/25 08:21:42;;;;;;;0.70;0.70;;;;;;;25.05;36.95;95730.78;4990144;28;20987;-57
2022/09/25 08:24:11;;;;;;;1.13;0.60;;;;;;;24.25;37.18;95730.25;4990455;28;20800;-56
2022/09/25 08:26:40;;;;;;;0.70;0.70;;;;;;;24.12;37.81;95729.53;4989783;28;20505;-56
2022/09/25 08:29:09;;;;;;;0.40;0.30;;;;;;;25.10;37.15;95725.91;4989386;28;20441;-56
2022/09/25 08:31:38;;;;;;;0.40;0.37;;;;;;;26.36;35.54;95718.19;4989931;28;20468;-56
2022/09/25 08:34:09;;;;;;;1.37;0.43;;;;;;;26.31;35.35;95730.13;4989734;28;20451;-57
2022/09/25 08:36:58;;;;;;;0.50;0.40;;;;;;;26.36;35.12;95732.53;4989636;28;20958;-56
2022/09/25 08:39:27;;;;;;;0.80;0.70;;;;;;;25.53;35.87;95724.97;4990007;28;20546;-56
2022/09/25 08:41:56;;;;;;;0.50;0.40;;;;;;;26.33;35.62;95725.13;4989692;28;20453;-57
2022/09/25 08:44:29;;;;;;;0.40;0.30;;;;;;;26.15;35.08;95717.78;4989546;28;20434;-56
2022/09/25 08:49:57;;;;;;;0.83;0.57;;;;;;;26.71;32.95;95699.78;4989411;28;20477;-57
2022/09/25 08:52:27;;;;;;;0.50;0.43;;;;;;;26.51;33.02;95703.72;4989798;28;20432;-57
2022/09/25 08:54:55;;;;;;;0.90;0.90;;;;;;;27.01;33.61;95700.72;4989760;28;20441;-58
2022/09/25 08:57:30;;;;;;;0.80;0.50;;;;;;;26.61;32.93;95705.84;4989761;28;20429;-57
2022/09/25 09:00:05;;;;;;;0.60;0.50;;;;;;;26.66;32.65;95691.16;4989947;28;20813;-57
2022/09/25 09:02:40;;;;;;;0.80;0.80;;;;;;;27.29;32.69;95691.41;4989630;28;20433;-57
2022/09/25 09:05:17;;;;;;;0.80;0.70;;;;;;;27.57;33.40;95676.28;4989312;28;20920;-58
2022/09/25 09:07:50;;;;;;;0.40;0.40;;;;;;;27.42;32.00;95674.53;4989505;28;20438;-58
2022/09/25 09:10:28;;;;;;;0.70;0.70;;;;;;;26.19;33.48;95639.81;4989707;28;20478;-58
2022/09/25 09:13:01;;;;;;;0.63;0.60;;;;;;;26.94;32.78;95650.84;4989737;28;20816;-57
2022/09/25 09:15:35;;;;;;;0.50;0.30;;;;;;;26.77;32.58;95671.16;4989615;28;20426;-58
2022/09/25 09:18:17;;;;;;;1.17;0.40;;;;;;;26.90;32.30;95667.09;4989222;28;20435;-58
2022/09/25 09:20:52;;;;;;;0.67;0.63;;;;;;;28.06;32.27;95656.25;4989346;28;20450;-57
2022/09/25 09:23:24;;;;;;;0.40;0.30;;;;;;;28.84;32.06;95658.63;4989709;28;20437;-57
2022/09/25 09:26:01;;;;;;;0.40;0.37;;;;;;;30.73;30.06;95653.69;4989464;28;20425;-58
2022/09/25 09:28:54;;;;;;;0.50;0.40;;;;;;;27.13;31.23;95600.97;4989156;28;20445;-57
2022/09/25 09:31:29;;;;;;;0.40;0.30;;;;;;;27.26;31.83;95657.53;4988656;28;20485;-57
2022/09/25 09:34:12;;;;;;;0.40;0.40;;;;;;;27.75;31.55;95645.78;4989150;28;20441;-60
2022/09/25 09:36:48;;;;;;;0.50;0.50;;;;;;;28.58;31.46;95658.78;4988713;28;20443;-58
2022/09/25 09:39:25;;;;;;;0.83;0.83;;;;;;;28.40;30.79;95657.81;4989391;28;20918;-58
2022/09/25 09:42:02;;;;;;;0.50;0.30;;;;;;;27.75;31.29;95649.28;4992434;28;20817;-58
2022/09/25 09:44:48;;;;;;;0.50;0.50;;;;;;;27.73;31.67;95637.19;4992763;28;20479;-58
2022/09/25 09:47:31;;;;;;;0.40;0.30;;;;;;;29.09;30.19;95593.31;4992329;28;20433;-58
2022/09/25 09:50:20;;;;;;;0.30;0.30;;;;;;;28.33;32.53;95650.31;4992277;28;20442;-58
2022/09/25 09:52:53;;;;;;;0.37;0.30;;;;;;;29.94;30.24;95643.72;4992412;28;20491;-57
2022/09/25 09:55:27;;;;;;;0.40;0.30;;;;;;;30.66;29.24;95547.72;4992002;28;20530;-57
2022/09/25 09:58:07;;;;;;;0.70;0.70;;;;;;;30.20;28.72;95577.00;4992217;28;20484;-57
2022/09/25 10:00:39;;;;;;;0.40;0.37;;;;;;;30.04;29.74;95625.78;4992126;28;20425;-57
2022/09/25 10:03:17;;;;;;;0.40;0.30;;;;;;;29.83;29.75;95601.91;4991918;28;20444;-59
2022/09/25 10:05:49;;;;;;;0.70;0.60;;;;;;;28.24;32.34;95627.25;4991815;28;20507;-57
2022/09/25 10:08:17;;;;;;;0.40;0.30;;;;;;;29.89;30.81;95637.84;4992449;28;20452;-58
2022/09/25 10:10:52;;;;;;;0.40;0.30;;;;;;;30.89;29.45;95628.69;4991781;28;20473;-59
2022/09/25 10:13:24;;;;;;;0.40;0.33;;;;;;;30.83;29.87;95622.03;4991749;28;20429;-57
2022/09/25 10:15:56;;;;;;;0.40;0.30;;;;;;;30.47;28.87;95619.28;4992259;28;20451;-57
2022/09/25 10:18:31;;;;;;;0.40;0.30;;;;;;;31.16;29.15;95605.19;4991892;28;20452;-58
2022/09/25 10:21:05;;;;;;;0.57;0.40;;;;;;;31.43;28.94;95606.31;4991724;28;21019;-58
2022/09/25 10:23:39;;;;;;;0.50;0.50;;;;;;;32.11;27.84;95588.44;4992026;28;20933;-57
2022/09/25 10:26:27;;;;;;;0.30;0.20;;;;;;;30.60;29.25;95601.31;4992238;28;20425;-57
2022/09/25 10:28:57;;;;;;;1.43;0.53;;;;;;;30.90;29.83;95587.25;4992028;28;20433;-58
2022/09/25 10:31:29;;;;;;;0.87;0.70;;;;;;;29.80;30.39;95594.50;4992017;28;20487;-57
2022/09/25 10:34:06;;;;;;;2.53;0.47;;;;;;;31.01;29.71;95582.53;4991481;28;20437;-58
2022/09/25 10:36:41;;;;;;;1.17;0.47;;;;;;;29.04;32.33;95587.44;4992062;28;20451;-57
2022/09/25 10:39:27;;;;;;;0.70;0.60;;;;;;;28.62;33.76;95591.41;4991583;28;20808;-57
2022/09/25 10:42:41;;;;;;;0.50;0.40;;;;;;;30.14;30.99;95589.50;4991557;28;20418;-58
2022/09/25 10:45:29;;;;;;;0.93;0.60;;;;;;;28.64;32.41;95583.63;4989335;28;20446;-58
2022/09/25 10:51:06;;;;;;;0.57;0.57;;;;;;;31.12;30.78;95555.91;4999494;28;20441;-58
2022/09/25 10:53:35;;;;;;;0.53;0.40;;;;;;;30.86;31.10;95556.34;4991677;28;20434;-57
2022/09/25 10:56:07;;;;;;;0.47;0.47;;;;;;;31.30;29.35;95555.84;4991797;28;20437;-57
2022/09/25 10:58:41;;;;;;;0.40;0.30;;;;;;;30.81;29.26;95518.41;4991276;28;21007;-58
2022/09/25 11:01:13;;;;;;;0.53;0.40;;;;;;;31.44;29.24;95547.59;4991552;28;20437;-58
2022/09/25 11:03:51;;;;;;;0.60;0.40;;;;;;;31.92;28.67;95547.78;4991277;28;20429;-58
2022/09/25 11:06:23;;;;;;;0.40;0.30;;;;;;;31.65;29.98;95546.75;4991481;28;20427;-56
2022/09/25 11:09:03;;;;;;;1.13;0.43;;;;;;;31.58;30.04;95541.28;4991261;28;20505;-56
2022/09/25 11:11:32;;;;;;;0.50;0.50;;;;;;;32.48;29.73;95530.97;4990991;28;20471;-57
2022/09/25 11:14:03;;;;;;;0.60;0.40;;;;;;;32.21;29.69;95532.72;4991249;28;20793;-57
2022/09/25 11:16:49;;;;;;;0.40;0.30;;;;;;;33.42;28.35;95516.69;4991557;28;20913;-57
2022/09/25 11:19:24;;;;;;;0.70;0.60;;;;;;;32.45;28.76;95509.03;4991159;28;20447;-58
2022/09/25 11:22:01;;;;;;;0.50;0.40;;;;;;;32.15;28.90;95517.91;4991410;28;20416;-58
2022/09/25 11:24:45;;;;;;;0.40;0.37;;;;;;;31.13;30.42;95519.13;4991253;28;20960;-57
2022/09/25 11:27:19;;;;;;;0.60;0.57;;;;;;;31.26;30.30;95516.75;4991095;28;20435;-57
2022/09/25 11:30:00;;;;;;;0.50;0.33;;;;;;;30.24;32.47;95446.53;4991015;28;20435;-63
2022/09/25 11:32:45;;;;;;;0.40;0.30;;;;;;;30.94;30.47;95496.91;4990773;28;20576;-58
2022/09/25 11:35:28;;;;;;;0.40;0.30;;;;;;;31.79;29.43;95511.84;4990860;28;20429;-57
2022/09/25 11:38:05;;;;;;;0.40;0.30;;;;;;;31.55;29.60;95504.50;4990795;28;20434;-57
2022/09/25 11:43:46;;;;;;;0.40;0.40;;;;;;;33.06;28.13;95490.84;4990662;28;20461;-57
2022/09/25 11:46:23;;;;;;;1.17;1.07;;;;;;;32.32;28.73;95483.28;4990674;28;20935;-57
2022/09/25 11:49:00;;;;;;;0.30;0.30;;;;;;;33.97;27.08;95488.13;4990808;28;20425;-57
2022/09/25 11:51:47;;;;;;;0.40;0.30;;;;;;;33.67;27.40;95473.22;4990682;28;20492;-57
2022/09/25 11:54:26;;;;;;;0.40;0.30;;;;;;;32.30;29.21;95425.28;4990581;28;20941;-57
2022/09/25 11:57:10;;;;;;;0.60;0.30;;;;;;;32.48;29.11;95473.34;4990272;28;20553;-56
2022/09/25 11:59:58;;;;;;;0.60;0.50;;;;;;;32.97;28.48;95468.53;4989799;28;20777;-56
2022/09/25 12:02:39;;;;;;;0.40;0.30;;;;;;;33.20;28.83;95472.22;4989620;28;20427;-56
2022/09/25 12:05:37;;;;;;;0.40;0.30;;;;;;;33.17;28.32;95461.28;4989844;28;20425;-59
2022/09/25 12:08:16;;;;;;;0.40;0.40;;;;;;;32.99;28.80;95458.69;4990448;28;20440;-57
2022/09/25 12:10:54;;;;;;;0.70;0.70;;;;;;;33.15;29.14;95436.19;4990705;28;20429;-57
2022/09/25 12:13:30;;;;;;;0.40;0.30;;;;;;;33.01;28.54;95430.84;4990251;28;20531;-58
2022/09/25 12:16:11;;;;;;;0.80;0.67;;;;;;;32.91;29.13;95465.50;4990027;28;20428;-57
2022/09/25 12:18:57;;;;;;;0.40;0.30;;;;;;;32.66;28.54;95453.22;4990030;28;20425;-58
2022/09/25 12:21:33;;;;;;;0.40;0.30;;;;;;;33.61;28.87;95452.88;4989967;28;20428;-58